Time;durP1;ratioP1;P1;durP2;ratioP2;P2;SDS_P1;SDS_P2;PMS_P1;PMS_P2;Temp;Humidity;BMP_temperature;BMP_pressure;BME280_temperature;BME280_humidity;BME280_pressure;Samples;Min_cycle;Max_cycle;Signal;HPM_P1;HPM_P2
2023/12/26 00:01:57;;;;;;;8.80;2.20;;;;;;;4.84;63.81;97910.86;106721;1265;66324;-38
2023/12/26 00:04:25;;;;;;;8.20;2.20;;;;;;;4.89;63.38;97929.66;106662;1265;71763;-39
2023/12/26 00:06:57;;;;;;;9.80;2.30;;;;;;;4.86;63.37;97930.45;106694;1269;59543;-39
2023/12/26 00:09:24;;;;;;;7.50;2.20;;;;;;;4.85;62.89;97932.12;106702;1265;60078;-38
2023/12/26 00:11:52;;;;;;;7.80;1.80;;;;;;;4.86;62.43;97930.91;106675;1265;71840;-38
2023/12/26 00:14:20;;;;;;;6.30;2.20;;;;;;;4.87;62.63;97934.99;106707;1266;67578;-39
2023/12/26 00:16:48;;;;;;;9.10;2.20;;;;;;;4.86;62.54;97936.81;106704;1266;72442;-40
2023/12/26 00:19:15;;;;;;;6.90;2.30;;;;;;;4.85;62.82;97941.24;106721;1266;59895;-38
2023/12/26 00:21:43;;;;;;;6.90;2.60;;;;;;;4.80;62.60;97942.09;106761;1266;60054;-39
2023/12/26 00:24:11;;;;;;;9.40;2.30;;;;;;;4.78;62.80;97944.05;107054;1257;73059;-39
2023/12/26 00:26:39;;;;;;;7.50;2.30;;;;;;;4.75;63.14;97950.05;107127;1257;68073;-39
2023/12/26 00:29:08;;;;;;;6.30;2.10;;;;;;;4.77;63.01;97956.14;107150;1259;72680;-39
2023/12/26 00:31:40;;;;;;;7.30;2.40;;;;;;;4.83;62.91;97965.30;107183;1258;59669;-39
2023/12/26 00:34:08;;;;;;;14.30;2.60;;;;;;;4.81;63.05;97965.80;107070;1257;59760;-39
2023/12/26 00:36:36;;;;;;;7.30;2.40;;;;;;;4.78;63.07;97972.42;107066;1259;73000;-39
2023/12/26 00:39:04;;;;;;;6.80;1.90;;;;;;;4.75;62.91;97972.67;106286;1257;1003694;-39
2023/12/26 00:41:32;;;;;;;9.40;2.70;;;;;;;4.74;62.88;97971.96;107084;1259;72469;-39
2023/12/26 00:43:59;;;;;;;8.30;2.30;;;;;;;4.72;63.21;97979.90;107041;1263;59793;-39
2023/12/26 00:46:27;;;;;;;9.00;2.40;;;;;;;4.69;63.04;97987.52;107100;1258;59498;-39
2023/12/26 00:48:55;;;;;;;9.20;2.60;;;;;;;4.66;63.28;97995.35;107029;1259;71830;-39
2023/12/26 00:51:23;;;;;;;8.30;2.50;;;;;;;4.63;63.35;97997.29;107042;1258;67659;-39
2023/12/26 00:53:51;;;;;;;7.50;2.30;;;;;;;4.59;63.44;98001.89;107029;1259;71396;-39
2023/12/26 00:56:19;;;;;;;6.00;1.90;;;;;;;4.57;63.33;97997.39;107089;1257;60890;-39
2023/12/26 00:58:47;;;;;;;9.70;1.90;;;;;;;4.62;63.31;97999.11;107101;1258;60038;-39
2023/12/26 01:01:14;;;;;;;7.40;2.10;;;;;;;4.65;62.46;97994.09;107117;1257;73410;-39
2023/12/26 01:03:42;;;;;;;8.70;2.30;;;;;;;4.66;62.17;97989.84;107088;1258;66757;-39
2023/12/26 01:06:09;;;;;;;6.20;2.10;;;;;;;4.68;62.15;97990.41;107055;1259;73068;-39
2023/12/26 01:08:37;;;;;;;7.30;2.20;;;;;;;4.67;62.30;98000.12;107073;1259;59784;-39
2023/12/26 01:11:05;;;;;;;9.60;2.20;;;;;;;4.63;62.04;98004.50;107067;1257;62198;-39
2023/12/26 01:13:34;;;;;;;6.40;2.10;;;;;;;4.60;62.09;98005.89;107107;1257;72687;-39
2023/12/26 01:16:03;;;;;;;12.50;2.40;;;;;;;4.60;62.08;98013.27;107057;1257;66855;-39
2023/12/26 01:18:31;;;;;;;7.50;2.00;;;;;;;4.59;62.36;98019.77;107164;1259;71413;-39
2023/12/26 01:20:59;;;;;;;12.50;2.70;;;;;;;4.55;62.73;98016.30;107071;1259;59617;-39
2023/12/26 01:23:27;;;;;;;10.30;2.80;;;;;;;4.52;63.10;98021.67;107093;1259;60015;-39
2023/12/26 01:25:54;;;;;;;7.00;2.20;;;;;;;4.46;63.68;98022.09;107062;1258;72766;-39
2023/12/26 01:28:22;;;;;;;5.40;2.00;;;;;;;4.44;64.21;98021.95;107076;1259;67950;-39
2023/12/26 01:30:49;;;;;;;6.80;2.50;;;;;;;4.43;64.58;98027.06;107065;1259;71722;-39
2023/12/26 01:33:17;;;;;;;8.20;2.30;;;;;;;4.32;65.26;98025.39;107081;1259;59627;-39
2023/12/26 01:35:45;;;;;;;5.60;2.10;;;;;;;4.22;65.85;98033.98;107100;1258;59978;-39
2023/12/26 01:38:12;;;;;;;8.70;2.60;;;;;;;4.12;66.65;98035.20;107096;1258;73031;-39
2023/12/26 01:40:41;;;;;;;7.90;2.10;;;;;;;4.02;67.20;98044.25;107081;1257;66428;-39
2023/12/26 01:43:09;;;;;;;6.20;1.90;;;;;;;3.94;67.66;98044.44;106318;1259;1016279;-39
2023/12/26 01:45:37;;;;;;;5.50;2.20;;;;;;;3.95;67.88;98046.16;106998;1259;60858;-39
2023/12/26 01:48:05;;;;;;;6.10;1.80;;;;;;;3.97;67.55;98053.00;107027;1256;60336;-39
2023/12/26 01:50:33;;;;;;;9.20;2.60;;;;;;;3.96;67.14;98051.16;107132;1256;72194;-39
2023/12/26 01:53:01;;;;;;;9.40;2.50;;;;;;;3.98;66.65;98049.13;107003;1263;66581;-39
2023/12/26 01:55:29;;;;;;;8.20;2.30;;;;;;;4.01;66.31;98061.25;107056;1256;71420;-39
2023/12/26 01:57:56;;;;;;;6.10;2.20;;;;;;;4.03;65.83;98057.67;107046;1256;59961;-39
2023/12/26 02:00:24;;;;;;;7.30;2.20;;;;;;;4.06;65.82;98062.57;107077;1256;60116;-39
2023/12/26 02:02:54;;;;;;;8.30;2.40;;;;;;;4.06;65.76;98073.16;107082;1256;71865;-39
2023/12/26 02:05:22;;;;;;;6.70;2.20;;;;;;;4.06;65.78;98072.61;107049;1256;67586;-39
2023/12/26 02:07:53;;;;;;;7.10;2.20;;;;;;;4.12;65.68;98075.13;107084;1256;72686;-39
2023/12/26 02:10:20;;;;;;;7.70;2.40;;;;;;;4.19;65.29;98082.28;107002;1256;59279;-39
2023/12/26 02:12:48;;;;;;;9.70;2.60;;;;;;;4.22;65.20;98085.55;107250;1256;60055;-39
2023/12/26 02:15:15;;;;;;;6.20;2.20;;;;;;;4.23;65.33;98085.04;107224;1256;71752;-39
2023/12/26 02:17:43;;;;;;;9.40;2.40;;;;;;;4.22;65.29;98092.83;107283;1256;67602;-39
2023/12/26 02:20:11;;;;;;;9.50;2.40;;;;;;;4.20;64.97;98090.66;107054;1265;72694;-39
2023/12/26 02:22:38;;;;;;;8.20;2.60;;;;;;;4.19;64.78;98094.76;107060;1259;60572;-39
2023/12/26 02:25:08;;;;;;;10.50;2.40;;;;;;;4.16;64.64;98096.77;107296;1256;60455;-39
2023/12/26 02:27:37;;;;;;;7.50;2.70;;;;;;;4.14;64.55;98102.77;107021;1256;74203;-39
2023/12/26 02:30:06;;;;;;;6.20;1.90;;;;;;;4.12;64.51;98110.14;106873;1256;67559;-39
2023/12/26 02:32:36;;;;;;;8.70;2.90;;;;;;;4.18;64.54;98114.11;107103;1256;71383;-39
2023/12/26 02:35:05;;;;;;;9.90;2.80;;;;;;;4.24;64.30;98117.71;107037;1265;60570;-39
2023/12/26 02:37:33;;;;;;;12.80;2.60;;;;;;;4.23;64.22;98117.61;107147;1256;60480;-39
2023/12/26 02:40:02;;;;;;;9.50;2.40;;;;;;;4.20;63.96;98120.85;107258;1256;72652;-39
2023/12/26 02:42:30;;;;;;;9.40;2.20;;;;;;;4.19;63.82;98122.67;107081;1256;67652;-39
2023/12/26 02:44:58;;;;;;;9.70;2.80;;;;;;;4.18;63.87;98121.24;107076;1261;71901;-39
2023/12/26 02:47:26;;;;;;;13.60;2.80;;;;;;;4.16;63.89;98119.30;107088;1259;60526;-39
2023/12/26 02:49:53;;;;;;;11.60;2.60;;;;;;;4.14;63.78;98118.02;107355;1256;60545;-39
2023/12/26 02:52:21;;;;;;;7.60;2.20;;;;;;;4.12;63.74;98126.54;107321;1256;73781;-39
2023/12/26 02:54:48;;;;;;;11.60;2.80;;;;;;;4.10;63.74;98127.44;107096;1256;67901;-39
2023/12/26 02:57:16;;;;;;;8.40;2.20;;;;;;;4.09;63.72;98127.00;107278;1257;72463;-39
2023/12/26 02:59:44;;;;;;;9.50;2.80;;;;;;;4.14;63.78;98125.44;107275;1256;60905;-39
2023/12/26 03:02:11;;;;;;;10.20;2.60;;;;;;;4.19;63.81;98132.08;107243;1256;60453;-39
2023/12/26 03:04:39;;;;;;;7.50;2.40;;;;;;;4.18;64.00;98133.81;107306;1259;73874;-39
2023/12/26 03:07:06;;;;;;;9.40;2.90;;;;;;;4.14;63.95;98137.26;107291;1259;67845;-39
2023/12/26 03:09:34;;;;;;;10.70;2.60;;;;;;;4.13;64.17;98140.28;107242;1256;72662;-39
2023/12/26 03:12:01;;;;;;;9.20;2.70;;;;;;;4.10;64.32;98142.83;107277;1256;60522;-39
2023/12/26 03:14:29;;;;;;;9.80;2.50;;;;;;;4.10;64.48;98149.94;107277;1256;59999;-39
2023/12/26 03:16:56;;;;;;;9.90;2.60;;;;;;;4.07;64.56;98155.33;107263;1256;73971;-39
2023/12/26 03:19:24;;;;;;;5.80;2.20;;;;;;;4.04;65.00;98164.91;107280;1256;67911;-39
2023/12/26 03:21:52;;;;;;;8.40;2.30;;;;;;;4.06;65.02;98170.01;107255;1256;72698;-39
2023/12/26 03:24:19;;;;;;;7.80;2.90;;;;;;;4.09;65.18;98170.30;107060;1259;60522;-39
2023/12/26 03:26:47;;;;;;;10.30;2.40;;;;;;;4.06;65.47;98174.59;107279;1256;60331;-39
2023/12/26 03:29:15;;;;;;;9.30;2.50;;;;;;;4.03;65.53;98177.65;107070;1257;72665;-39
2023/12/26 03:31:43;;;;;;;6.70;2.40;;;;;;;4.01;65.49;98178.23;107298;1258;67624;-39
2023/12/26 03:34:11;;;;;;;9.50;2.70;;;;;;;3.98;66.11;98179.52;107055;1256;72722;-39
2023/12/26 03:36:46;;;;;;;7.50;2.60;;;;;;;3.94;66.79;98181.95;107054;1258;61227;-39
2023/12/26 03:39:13;;;;;;;6.80;2.20;;;;;;;3.94;67.33;98180.27;107217;1256;60451;-39
2023/12/26 03:41:44;;;;;;;8.90;2.90;;;;;;;3.90;67.96;98183.09;107313;1256;73797;-39
2023/12/26 03:44:12;;;;;;;6.00;2.30;;;;;;;3.81;68.61;98177.17;107082;1256;66617;-39
2023/12/26 03:46:39;;;;;;;12.10;2.90;;;;;;;3.71;69.25;98180.97;107088;1256;72716;-39
2023/12/26 03:49:07;;;;;;;9.40;2.50;;;;;;;3.61;69.78;98191.18;107052;1256;60334;-39
2023/12/26 03:51:34;;;;;;;9.00;2.30;;;;;;;3.52;70.41;98193.07;107086;1256;60359;-39
2023/12/26 03:54:03;;;;;;;6.10;2.40;;;;;;;3.51;70.95;98197.88;107059;1256;73853;-39
2023/12/26 03:56:34;;;;;;;9.50;2.60;;;;;;;3.48;71.44;98202.33;107269;1256;66880;-39
2023/12/26 03:59:02;;;;;;;8.40;2.80;;;;;;;3.43;71.56;98203.48;107086;1259;72503;-40
2023/12/26 04:01:30;;;;;;;12.00;3.10;;;;;;;3.41;71.23;98204.81;107071;1256;60295;-40
2023/12/26 04:03:57;;;;;;;11.90;2.90;;;;;;;3.45;69.66;98203.68;107223;1256;60454;-38
2023/12/26 04:06:26;;;;;;;9.00;2.50;;;;;;;3.53;69.24;98209.35;107183;1256;74302;-38
2023/12/26 04:08:54;;;;;;;8.60;2.90;;;;;;;3.64;68.65;98209.42;107041;1263;67998;-39
2023/12/26 04:11:22;;;;;;;10.00;3.30;;;;;;;3.71;67.91;98214.21;107076;1259;71485;-39
2023/12/26 04:13:50;;;;;;;13.20;2.70;;;;;;;3.73;67.15;98209.27;107093;1256;60496;-38
2023/12/26 04:16:18;;;;;;;12.40;2.40;;;;;;;3.76;66.94;98217.19;107287;1256;59246;-39
2023/12/26 04:18:46;;;;;;;8.30;2.70;;;;;;;3.78;66.59;98218.29;107208;1256;73945;-38
2023/12/26 04:21:14;;;;;;;10.20;2.80;;;;;;;3.77;66.37;98213.00;107098;1256;67923;-39
2023/12/26 04:23:42;;;;;;;10.00;2.80;;;;;;;3.76;66.00;98215.89;105599;1256;1003457;-39
2023/12/26 04:26:09;;;;;;;10.30;2.50;;;;;;;3.80;65.74;98213.85;107071;1256;60889;-38
2023/12/26 04:28:37;;;;;;;10.70;2.70;;;;;;;3.87;65.18;98219.55;107219;1256;60180;-38
2023/12/26 04:31:05;;;;;;;10.80;2.90;;;;;;;3.88;65.14;98220.17;107103;1256;72622;-38
2023/12/26 04:33:33;;;;;;;10.90;3.20;;;;;;;3.87;65.04;98230.04;107150;1256;66300;-38
2023/12/26 04:36:00;;;;;;;9.90;2.70;;;;;;;3.86;65.02;98229.64;107200;1261;72778;-38
2023/12/26 04:38:28;;;;;;;10.60;3.10;;;;;;;3.84;65.05;98235.15;106900;1256;60443;-39
2023/12/26 04:40:56;;;;;;;11.20;3.00;;;;;;;3.81;65.20;98233.48;107082;1256;60310;-38
2023/12/26 04:43:23;;;;;;;8.60;2.30;;;;;;;3.78;65.15;98239.04;107089;1261;73852;-38
2023/12/26 04:45:50;;;;;;;10.10;2.70;;;;;;;3.75;65.16;98232.71;107260;1256;67897;-38
2023/12/26 04:48:18;;;;;;;13.70;3.10;;;;;;;3.80;64.96;98234.98;107255;1259;72485;-38
2023/12/26 04:50:46;;;;;;;8.90;2.50;;;;;;;3.85;64.68;98237.55;107288;1258;60395;-38
2023/12/26 04:53:14;;;;;;;12.40;3.20;;;;;;;3.84;64.55;98238.14;107223;1256;60489;-38
2023/12/26 04:55:42;;;;;;;14.10;3.00;;;;;;;3.82;64.69;98238.03;107280;1259;73812;-38
2023/12/26 04:58:10;;;;;;;11.50;3.10;;;;;;;3.79;64.52;98236.55;107035;1256;65972;-38
2023/12/26 05:00:37;;;;;;;10.90;2.80;;;;;;;3.77;64.50;98238.03;107073;1256;71370;-38
2023/12/26 05:03:06;;;;;;;13.20;2.80;;;;;;;3.73;64.42;98246.56;107083;1256;60331;-38
2023/12/26 05:05:33;;;;;;;16.00;3.10;;;;;;;3.70;64.45;98253.84;107085;1256;60499;-38
2023/12/26 05:08:01;;;;;;;14.40;2.90;;;;;;;3.68;64.55;98259.38;107095;1256;72330;-39
2023/12/26 05:10:28;;;;;;;10.70;3.10;;;;;;;3.66;64.59;98264.15;107290;1256;67550;-38
2023/12/26 05:12:57;;;;;;;11.30;3.00;;;;;;;3.71;64.83;98266.29;107220;1256;72655;-40
2023/12/26 05:15:25;;;;;;;13.10;2.90;;;;;;;3.73;64.91;98271.69;107267;1257;60945;-39
2023/12/26 05:17:53;;;;;;;10.80;2.80;;;;;;;3.70;64.89;98271.46;107086;1256;60445;-40
2023/12/26 05:20:20;;;;;;;13.90;3.00;;;;;;;3.69;65.10;98275.93;107263;1257;72008;-40
2023/12/26 05:22:58;;;;;;;12.80;3.50;;;;;;;3.66;65.09;98282.90;107116;1256;66334;-40
2023/12/26 05:25:26;;;;;;;16.80;3.50;;;;;;;3.56;65.40;98270.73;107274;1259;72311;-39
2023/12/26 05:27:55;;;;;;;12.60;2.70;;;;;;;3.59;65.59;98281.95;107282;1256;60329;-39
2023/12/26 05:30:22;;;;;;;11.40;2.50;;;;;;;3.53;65.77;98291.09;107100;1256;60376;-40
2023/12/26 05:32:50;;;;;;;11.40;2.70;;;;;;;3.51;65.94;98295.25;107026;1262;73929;-40
2023/12/26 05:35:20;;;;;;;12.70;3.00;;;;;;;3.51;65.98;98293.12;107126;1257;67445;-39
2023/12/26 05:37:48;;;;;;;11.30;3.10;;;;;;;3.43;66.38;98298.45;107107;1261;71432;-40
2023/12/26 05:40:16;;;;;;;10.00;3.10;;;;;;;3.34;67.08;98307.45;107148;1260;60651;-39
2023/12/26 05:42:45;;;;;;;9.40;2.70;;;;;;;3.24;67.87;98312.58;107280;1256;60440;-39
2023/12/26 05:45:12;;;;;;;10.00;3.00;;;;;;;3.14;68.57;98313.73;107058;1256;73853;-39
2023/12/26 05:47:40;;;;;;;12.90;3.30;;;;;;;3.05;69.38;98321.74;107214;1256;66423;-40
2023/12/26 05:50:09;;;;;;;9.50;3.30;;;;;;;3.02;70.03;98328.83;107102;1261;71554;-39
2023/12/26 05:52:37;;;;;;;9.90;3.10;;;;;;;3.03;70.83;98332.16;107086;1259;60502;-39
2023/12/26 05:55:05;;;;;;;7.50;2.80;;;;;;;3.00;71.68;98335.95;107044;1256;60373;-40
2023/12/26 05:57:33;;;;;;;8.90;2.90;;;;;;;2.96;72.29;98342.16;107278;1256;73846;-39
2023/12/26 06:00:01;;;;;;;11.00;2.80;;;;;;;2.92;72.83;98338.98;107277;1256;66776;-39
2023/12/26 06:02:29;;;;;;;6.50;2.60;;;;;;;2.82;73.46;98327.89;107268;1258;70296;-39
2023/12/26 06:04:57;;;;;;;8.30;3.20;;;;;;;2.94;73.38;98338.43;107119;1258;60442;-40
2023/12/26 06:07:25;;;;;;;9.70;2.90;;;;;;;3.00;73.38;98335.33;107296;1258;60293;-39
2023/12/26 06:09:53;;;;;;;10.80;2.80;;;;;;;2.99;73.33;98336.78;107110;1261;72655;-39
2023/12/26 06:12:21;;;;;;;10.60;3.10;;;;;;;2.98;73.15;98351.97;107226;1256;67568;-39
2023/12/26 06:14:49;;;;;;;11.90;2.90;;;;;;;2.98;73.10;98363.90;107080;1261;71810;-39
2023/12/26 06:17:19;;;;;;;10.20;2.80;;;;;;;3.02;72.87;98366.45;107061;1256;60509;-39
2023/12/26 06:19:46;;;;;;;11.00;2.70;;;;;;;3.12;72.39;98369.36;107284;1257;60366;-39
2023/12/26 06:22:14;;;;;;;10.30;2.70;;;;;;;3.18;72.13;98375.67;107293;1256;74290;-39
2023/12/26 06:24:43;;;;;;;12.10;3.20;;;;;;;3.19;71.97;98387.04;107126;1256;66783;-39
2023/12/26 06:27:10;;;;;;;8.60;3.00;;;;;;;3.19;71.86;98389.80;107239;1262;72673;-39
2023/12/26 06:29:38;;;;;;;8.70;2.90;;;;;;;3.17;71.80;98396.21;107256;1260;60385;-39
2023/12/26 06:32:06;;;;;;;9.20;2.70;;;;;;;3.14;71.83;98402.64;107051;1263;60369;-39
2023/12/26 06:34:34;;;;;;;8.40;2.90;;;;;;;3.17;71.97;98408.48;107267;1256;72542;-39
2023/12/26 06:37:02;;;;;;;9.40;3.30;;;;;;;3.18;71.93;98417.27;107355;1259;66470;-39
2023/12/26 06:39:31;;;;;;;9.80;3.40;;;;;;;3.14;72.03;98423.38;107066;1262;72707;-39
2023/12/26 06:41:58;;;;;;;8.20;3.50;;;;;;;3.09;72.22;98425.90;107132;1261;60362;-39
2023/12/26 06:44:26;;;;;;;11.60;3.30;;;;;;;3.05;72.42;98427.98;107116;1258;60277;-39
2023/12/26 06:46:54;;;;;;;10.00;3.20;;;;;;;3.02;72.46;98434.31;107039;1256;73946;-39
2023/12/26 06:49:21;;;;;;;8.70;3.10;;;;;;;3.07;72.36;98430.20;107056;1262;67702;-39
2023/12/26 06:51:49;;;;;;;11.50;3.20;;;;;;;3.13;72.22;98428.15;107104;1261;70469;-39
2023/12/26 06:54:18;;;;;;;11.10;3.30;;;;;;;3.11;72.12;98421.52;107271;1258;60478;-39
2023/12/26 06:56:46;;;;;;;11.40;3.50;;;;;;;3.09;72.24;98428.95;107082;1256;60443;-39
2023/12/26 06:59:14;;;;;;;14.40;3.60;;;;;;;3.07;72.32;98428.88;107243;1261;72622;-39
2023/12/26 07:01:46;;;;;;;11.30;3.50;;;;;;;3.07;72.19;98433.55;107203;1256;66605;-39
2023/12/26 07:04:14;;;;;;;9.00;3.20;;;;;;;3.12;72.05;98432.27;107064;1263;72696;-39
2023/12/26 07:06:42;;;;;;;12.40;3.60;;;;;;;3.19;71.84;98443.27;107283;1257;60437;-39
2023/12/26 07:09:09;;;;;;;12.50;3.10;;;;;;;3.19;71.92;98447.19;107334;1258;59579;-40
2023/12/26 07:11:37;;;;;;;12.40;3.20;;;;;;;3.19;71.74;98447.56;107326;1256;73784;-39
2023/12/26 07:14:04;;;;;;;7.90;2.70;;;;;;;3.19;71.80;98453.61;107277;1260;67518;-39
2023/12/26 07:16:33;;;;;;;10.20;2.90;;;;;;;3.22;71.71;98453.92;107253;1260;71390;-39
2023/12/26 07:19:00;;;;;;;10.60;3.00;;;;;;;3.30;71.07;98451.99;107139;1256;60901;-39
2023/12/26 07:21:28;;;;;;;12.70;2.70;;;;;;;3.37;70.53;98455.98;107114;1258;60531;-39
2023/12/26 07:23:56;;;;;;;14.70;3.20;;;;;;;3.40;70.29;98453.76;107073;1263;73912;-39
2023/12/26 07:26:24;;;;;;;10.60;3.00;;;;;;;3.43;69.94;98453.94;107050;1262;67870;-39
2023/12/26 07:28:51;;;;;;;10.30;3.00;;;;;;;3.43;69.48;98461.39;107076;1257;72730;-39
2023/12/26 07:31:20;;;;;;;12.40;3.50;;;;;;;3.47;69.49;98457.27;107041;1263;60942;-39
2023/12/26 07:33:48;;;;;;;8.30;2.90;;;;;;;3.56;69.27;98464.78;107082;1262;60651;-39
2023/12/26 07:36:16;;;;;;;12.90;3.00;;;;;;;3.62;68.84;98466.95;107053;1262;73915;-39
2023/12/26 07:38:44;;;;;;;15.40;3.10;;;;;;;3.63;68.91;98470.73;107063;1258;67919;-40
2023/12/26 07:41:12;;;;;;;14.80;3.70;;;;;;;3.65;68.51;98471.55;107085;1262;72686;-39
2023/12/26 07:43:39;;;;;;;11.10;3.10;;;;;;;3.68;68.44;98479.30;107076;1260;60444;-39
2023/12/26 07:46:07;;;;;;;9.70;3.10;;;;;;;3.71;68.29;98476.48;107066;1263;60330;-40
2023/12/26 07:48:34;;;;;;;9.60;2.70;;;;;;;3.82;68.12;98476.77;107050;1262;72589;-39
2023/12/26 07:51:03;;;;;;;11.20;2.80;;;;;;;3.93;67.84;98484.02;105569;1263;1003261;-39
2023/12/26 07:53:30;;;;;;;11.50;3.40;;;;;;;4.00;67.46;98489.19;107089;1263;72712;-39
2023/12/26 07:55:59;;;;;;;9.60;2.70;;;;;;;4.04;67.21;98490.92;107030;1260;60451;-39
2023/12/26 07:58:27;;;;;;;15.40;4.00;;;;;;;4.09;66.92;98498.36;107047;1260;60594;-39
2023/12/26 08:00:55;;;;;;;7.90;2.60;;;;;;;4.16;66.89;98502.39;107074;1262;71915;-39
2023/12/26 08:03:22;;;;;;;12.10;3.40;;;;;;;4.23;66.59;98507.69;107034;1263;67512;-39
2023/12/26 08:05:50;;;;;;;10.20;3.00;;;;;;;4.38;66.22;98505.44;107032;1261;72775;-39
2023/12/26 08:08:17;;;;;;;12.30;3.20;;;;;;;4.56;65.87;98511.08;107031;1261;60563;-39
2023/12/26 08:10:47;;;;;;;8.40;3.40;;;;;;;4.66;65.33;98499.13;107083;1261;60371;-39
2023/12/26 08:13:14;;;;;;;15.10;3.20;;;;;;;4.76;64.12;98498.63;107173;1260;73872;-39
2023/12/26 08:15:42;;;;;;;12.00;2.90;;;;;;;4.87;63.82;98505.59;107030;1263;67320;-39
2023/12/26 08:18:09;;;;;;;14.40;3.60;;;;;;;4.95;63.12;98504.80;107016;1263;72749;-38
2023/12/26 08:20:38;;;;;;;17.50;3.10;;;;;;;5.02;62.98;98507.39;107048;1264;62136;-38
2023/12/26 08:23:05;;;;;;;15.10;3.50;;;;;;;5.09;62.87;98509.51;107129;1260;60385;-38
2023/12/26 08:25:33;;;;;;;10.90;3.20;;;;;;;5.16;62.59;98511.91;107051;1257;74031;-39
2023/12/26 08:28:01;;;;;;;11.20;3.20;;;;;;;5.24;62.55;98517.17;107063;1259;67570;-39
2023/12/26 08:30:28;;;;;;;10.60;2.70;;;;;;;5.32;62.47;98517.53;107036;1261;73178;-39
2023/12/26 08:32:56;;;;;;;8.80;2.70;;;;;;;5.38;62.42;98514.39;107065;1257;60322;-38
2023/12/26 08:35:24;;;;;;;11.10;3.10;;;;;;;5.46;62.21;98515.66;107078;1260;60448;-38
2023/12/26 08:37:52;;;;;;;11.90;2.90;;;;;;;5.54;61.86;98506.36;107038;1259;72569;-38
2023/12/26 08:40:22;;;;;;;8.90;2.50;;;;;;;5.62;61.84;98507.10;107012;1262;67923;-39
2023/12/26 08:42:49;;;;;;;11.20;2.80;;;;;;;5.68;61.21;98509.00;107041;1263;72694;-39
2023/12/26 08:45:17;;;;;;;15.40;3.10;;;;;;;5.71;61.15;98506.99;107017;1261;60321;-39
2023/12/26 08:47:45;;;;;;;11.70;2.80;;;;;;;5.73;60.96;98508.59;107165;1260;60058;-39
2023/12/26 08:50:13;;;;;;;12.60;3.80;;;;;;;5.74;61.04;98516.52;107044;1263;73804;-38
2023/12/26 08:52:41;;;;;;;8.70;2.70;;;;;;;5.77;60.90;98521.73;107096;1258;68077;-39
2023/12/26 08:55:09;;;;;;;11.90;2.80;;;;;;;5.81;60.83;98514.45;107051;1264;72643;-39
2023/12/26 08:57:36;;;;;;;14.00;3.40;;;;;;;5.87;60.68;98515.00;107067;1260;60440;-39
2023/12/26 09:00:04;;;;;;;13.20;2.90;;;;;;;5.94;60.60;98514.10;107053;1258;60499;-39
2023/12/26 09:02:32;;;;;;;13.00;3.00;;;;;;;6.01;60.25;98522.42;106940;1264;73930;-40
2023/12/26 09:05:02;;;;;;;10.00;3.00;;;;;;;6.05;59.62;98517.20;107064;1260;66804;-40
2023/12/26 09:07:30;;;;;;;11.80;3.20;;;;;;;6.09;59.82;98512.08;107108;1263;72689;-42
2023/12/26 09:09:57;;;;;;;12.30;3.10;;;;;;;6.14;59.41;98512.27;107053;1261;60565;-40
2023/12/26 09:12:25;;;;;;;14.10;3.00;;;;;;;6.19;59.20;98514.35;107061;1263;60453;-40
2023/12/26 09:14:52;;;;;;;12.00;3.00;;;;;;;6.25;59.20;98515.05;107050;1261;73900;-40
2023/12/26 09:17:20;;;;;;;12.40;3.80;;;;;;;6.32;59.34;98518.66;107085;1258;66818;-40
2023/12/26 09:19:47;;;;;;;13.70;3.20;;;;;;;6.41;58.79;98522.10;107065;1258;71445;-40
2023/12/26 09:22:15;;;;;;;9.70;2.70;;;;;;;6.49;58.58;98526.51;107022;1260;60461;-40
2023/12/26 09:24:43;;;;;;;11.30;3.40;;;;;;;6.58;58.07;98526.05;107065;1260;60335;-40
2023/12/26 09:27:10;;;;;;;10.50;3.40;;;;;;;6.63;57.72;98523.63;107035;1264;72675;-40
2023/12/26 09:29:38;;;;;;;10.30;3.00;;;;;;;6.68;57.54;98520.58;107079;1260;67645;-40
2023/12/26 09:32:06;;;;;;;9.10;2.70;;;;;;;6.73;57.32;98516.98;107061;1257;72803;-38
2023/12/26 09:34:33;;;;;;;10.90;3.50;;;;;;;6.78;57.09;98513.16;107064;1260;60570;-38
2023/12/26 09:37:02;;;;;;;8.30;2.30;;;;;;;6.84;57.34;98517.98;107079;1261;60448;-38
2023/12/26 09:39:29;;;;;;;10.20;2.90;;;;;;;6.93;57.35;98515.61;107077;1259;74019;-39
2023/12/26 09:41:57;;;;;;;12.80;3.00;;;;;;;7.06;56.85;98513.16;107055;1257;68157;-38
2023/12/26 09:44:25;;;;;;;8.70;2.80;;;;;;;7.18;56.30;98509.39;106908;1266;71807;-39
2023/12/26 09:46:52;;;;;;;9.60;2.60;;;;;;;7.27;56.11;98512.65;107068;1258;60355;-39
2023/12/26 09:49:20;;;;;;;8.70;2.70;;;;;;;7.35;55.17;98518.42;107127;1260;60133;-39
2023/12/26 09:51:52;;;;;;;8.50;2.40;;;;;;;7.45;55.22;98527.14;107049;1257;73845;-39
2023/12/26 09:54:20;;;;;;;9.90;3.00;;;;;;;7.53;54.96;98530.81;106926;1259;68021;-39
2023/12/26 09:56:47;;;;;;;7.40;2.40;;;;;;;7.58;54.22;98538.31;106921;1266;72434;-39
2023/12/26 09:59:15;;;;;;;10.30;3.30;;;;;;;7.59;54.21;98536.27;106315;1258;1003749;-40
2023/12/26 10:01:44;;;;;;;8.80;2.70;;;;;;;7.62;54.51;98545.01;106950;1258;60454;-40
2023/12/26 10:04:12;;;;;;;8.70;2.90;;;;;;;7.68;54.72;98550.19;107018;1263;73946;-40
2023/12/26 10:06:39;;;;;;;10.80;2.50;;;;;;;7.73;54.50;98541.48;107058;1259;66915;-40
2023/12/26 10:09:07;;;;;;;9.30;3.00;;;;;;;7.79;54.10;98542.59;106316;1263;1003128;-40
2023/12/26 10:11:35;;;;;;;11.60;3.00;;;;;;;7.79;54.28;98546.07;107048;1264;60567;-40
2023/12/26 10:14:02;;;;;;;7.50;3.00;;;;;;;7.75;54.28;98538.37;107060;1257;60238;-39
2023/12/26 10:16:30;;;;;;;14.20;3.20;;;;;;;7.66;54.90;98535.13;107047;1257;73975;-40
2023/12/26 10:18:58;;;;;;;10.80;3.30;;;;;;;7.55;55.86;98533.39;107076;1260;67893;-39
2023/12/26 10:21:25;;;;;;;13.20;3.70;;;;;;;7.43;56.89;98527.88;107056;1261;72943;-39
2023/12/26 10:23:54;;;;;;;16.40;4.10;;;;;;;7.31;57.53;98519.04;106927;1260;60576;-39
2023/12/26 10:26:22;;;;;;;8.50;3.30;;;;;;;7.23;58.23;98513.40;106884;1257;111590;-39
2023/12/26 10:31:14;;;;;;;7.50;2.90;;;;;;;7.11;59.04;98501.55;104148;1292;602027;-39
2023/12/26 10:33:42;;;;;;;9.60;3.50;;;;;;;7.03;59.18;98496.03;106584;1267;59332;-39
2023/12/26 10:36:10;;;;;;;13.20;3.30;;;;;;;7.01;59.60;98499.54;106533;1267;60074;-39
2023/12/26 10:38:44;;;;;;;13.70;4.10;;;;;;;7.03;59.93;98494.02;106588;1273;70984;-39
2023/12/26 10:41:24;;;;;;;14.20;3.50;;;;;;;7.10;60.05;98490.84;106653;1267;66990;-39
2023/12/26 10:43:54;;;;;;;16.10;3.90;;;;;;;7.16;60.18;98484.17;106497;1269;115311;-39
2023/12/26 10:46:21;;;;;;;9.70;2.80;;;;;;;7.22;60.51;98481.89;106726;1264;59292;-39
2023/12/26 10:48:49;;;;;;;13.70;3.30;;;;;;;7.25;60.46;98482.88;106732;1270;60040;-39
2023/12/26 10:51:17;;;;;;;9.00;3.10;;;;;;;7.27;60.13;98482.52;106684;1264;72305;-39
2023/12/26 10:54:00;;;;;;;9.40;3.00;;;;;;;7.26;60.35;98487.13;106642;1264;65921;-39
2023/12/26 10:56:28;;;;;;;10.80;3.50;;;;;;;7.24;60.71;98486.32;106713;1264;72753;-39
2023/12/26 10:58:56;;;;;;;11.60;3.80;;;;;;;7.21;61.04;98487.27;106711;1264;59617;-39
2023/12/26 13:53:20;;;;;;;4.40;2.50;;;;;;;7.15;89.70;98299.48;107148;1258;73025;-39
2023/12/26 13:56:25;;;;;;;4.90;2.60;;;;;;;7.10;90.11;98297.40;107185;1262;67022;-39
2023/12/26 13:59:31;;;;;;;5.10;2.80;;;;;;;7.09;90.36;98291.68;107148;1259;72739;-39
2023/12/26 14:02:36;;;;;;;3.90;2.60;;;;;;;7.16;90.48;98290.88;107170;1261;60464;-39
2023/12/26 14:05:42;;;;;;;5.40;3.20;;;;;;;7.16;90.63;98281.79;107182;1258;60242;-39
2023/12/26 14:08:09;;;;;;;4.80;3.10;;;;;;;7.14;91.06;98268.83;107126;1259;73181;-39
2023/12/26 14:11:15;;;;;;;11.80;4.10;;;;;;;7.17;91.08;98271.41;107143;1259;67874;-39
2023/12/26 14:13:43;;;;;;;6.40;3.80;;;;;;;7.23;90.71;98270.96;107161;1262;72775;-39
2023/12/26 14:16:48;;;;;;;8.20;3.80;;;;;;;7.22;90.69;98272.86;107133;1258;59592;-40
2023/12/26 14:19:53;;;;;;;6.60;3.60;;;;;;;7.14;91.20;98257.82;107178;1262;59528;-39
2023/12/26 14:22:23;;;;;;;5.00;3.60;;;;;;;7.13;91.45;98263.95;107186;1258;73058;-39
2023/12/26 14:24:51;;;;;;;4.40;3.10;;;;;;;7.17;91.30;98256.92;107153;1259;67828;-39
2023/12/26 14:27:18;;;;;;;6.00;4.10;;;;;;;7.18;91.44;98253.85;107169;1262;71850;-39
2023/12/26 14:30:24;;;;;;;5.50;3.70;;;;;;;7.14;91.84;98246.88;107095;1259;60048;-39
2023/12/26 14:32:52;;;;;;;4.70;3.00;;;;;;;7.07;92.17;98232.39;106999;1259;60275;-39